Всё
Tibooburra Airport (Tibooburra, New South Wales) TYB Погода
|
Tibooburra, New South Wales (TYB / YTIB)
Безоблачно
Легкий ветер |
|
9 °C |
There is no TAF data available at TYB or any nearby airports.
Недавняя история METAR для TYB
| Date | Time (AEST) | Flight Rules | Wind Dir. | Speed | Type | Height AGL (ft) | Visibility | Temp (°C) | Temp (°F) | Dew Point (°C) | Dew Point (°F) | Rel. Humid. | Pressure | Density Altitude | Remarks |
|---|---|---|---|---|---|---|---|---|---|---|---|---|---|---|---|
| 09-май | 04:00 | n/a | 210° | 7 kt | Missing | 9° | 48° | 7° | 44° | 87% | 1026 mb | -514 ft | |||
| 09-май | 03:00 | n/a | 190° | 7 kt | Missing | 10° | 50° | 8° | 46° | 87% | 1026 mb | -394 ft | |||
| 09-май | 02:00 | n/a | 180° | 7 kt | Missing | 11° | 51° | 8° | 46° | 82% | 1026 mb | -274 ft | |||
| 09-май | 01:00 | n/a | 160° | 8 kt | Missing | 12° | 53° | 8° | 46° | 76% | 1027 mb | -183 ft | |||
| 09-май | 00:00 | n/a | 160° | 8 kt | Missing | 12° | 53° | 8° | 46° | 76% | 1027 mb | -183 ft | |||
| 08-май | 23:00 | n/a | 160° | 5 kt | Missing | 12° | 53° | 8° | 46° | 76% | 1027 mb | -183 ft | |||
| 08-май | 22:00 | n/a | 170° | 7 kt | Missing | 13° | 55° | 8° | 46° | 72% | 1027 mb | -63 ft | |||
| 08-май | 21:00 | n/a | 180° | 6 kt | Missing | 13° | 55° | 8° | 46° | 72% | 1027 mb | -63 ft | |||
| 08-май | 20:00 | n/a | 190° | 7 kt | Missing | 14° | 57° | 8° | 46° | 67% | 1027 mb | 57 ft | |||
| 08-май | 19:00 | n/a | 190° | 5 kt | Missing | 15° | 59° | 8° | 46° | 63% | 1026 mb | 206 ft | |||
| 08-май | 18:00 | n/a | 170° | 10 kt | Missing | 16° | 60° | 7° | 44° | 55% | 1026 mb | 326 ft | |||
| 08-май | 17:00 | n/a | 180° | 13 kt | Missing | 17° | 62° | 7° | 44° | 52% | 1026 mb | 446 ft | |||
| 08-май | 16:00 | n/a | 160° | 11 kt | Missing | 18° | 64° | 6° | 42° | 45% | 1026 mb | 566 ft | |||
| 08-май | 15:00 | n/a | 150° | 8 kt | Missing | 18° | 64° | 6° | 42° | 45% | 1026 mb | 566 ft | |||
| 08-май | 14:00 | n/a | 140° | 11 kt | Missing | 17° | 62° | 6° | 42° | 48% | 1027 mb | 417 ft | |||
| 08-май | 13:00 | n/a | 160° | 13 kt | Missing | 16° | 60° | 5° | 41° | 48% | 1028 mb | 267 ft | |||
| 08-май | 12:00 | n/a | 160° | 13 kt | Missing | 16° | 60° | 5° | 41° | 48% | 1029 mb | 238 ft | |||
| 08-май | 11:00 | n/a | 150° | 14 kt | Missing | 15° | 59° | 5° | 41° | 51% | 1030 mb | 88 ft | |||
| 08-май | 10:00 | n/a | 150° | 12 kt | Missing | 14° | 57° | 4° | 39° | 51% | 1030 mb | -32 ft | |||
| 08-май | 09:00 | n/a | 150° | 11 kt | Missing | 12° | 53° | 3° | 37° | 54% | 1030 mb | -272 ft | |||
| 08-май | 08:00 | n/a | 170° | 7 kt | Missing | 9° | 48° | 2° | 35° | 61% | 1029 mb | -602 ft | |||
| 08-май | 07:00 | n/a | 170° | 7 kt | Missing | 7° | 44° | 1° | 33° | 66% | 1028 mb | -813 ft | |||
| 08-май | 06:00 | n/a | 190° | 5 kt | Missing | 7° | 44° | 1° | 33° | 66% | 1028 mb | -813 ft | |||
| 08-май | 05:00 | n/a | 180° | 5 kt | Missing | 8° | 46° | 1° | 33° | 61% | 1028 mb | -693 ft |
Вход
| Ваш браузер не поддерживается.. обновите веб-браузер |
